sensor_id;sensor_type;location;lat;lon;timestamp;pressure;altitude;pressure_sealevel;temperature;humidity
71105;BME280;58760;48.716;8.962;2023-06-22T00:01:09;96504.44;;;21.25;81.48
71105;BME280;58760;48.716;8.962;2023-06-22T00:03:35;96508.03;;;21.30;81.08
71105;BME280;58760;48.716;8.962;2023-06-22T00:06:00;96504.91;;;21.22;81.77
71105;BME280;58760;48.716;8.962;2023-06-22T00:08:25;96503.66;;;21.13;82.64
71105;BME280;58760;48.716;8.962;2023-06-22T00:10:51;96514.53;;;21.29;81.33
71105;BME280;58760;48.716;8.962;2023-06-22T00:13:16;96509.63;;;21.15;83.46
71105;BME280;58760;48.716;8.962;2023-06-22T00:15:43;96510.91;;;21.01;83.70
71105;BME280;58760;48.716;8.962;2023-06-22T00:18:09;96522.09;;;20.93;84.64
71105;BME280;58760;48.716;8.962;2023-06-22T00:20:35;96517.75;;;20.92;85.13
71105;BME280;58760;48.716;8.962;2023-06-22T00:23:02;96516.25;;;20.84;84.88
71105;BME280;58760;48.716;8.962;2023-06-22T00:25:33;96509.22;;;20.83;85.88
71105;BME280;58760;48.716;8.962;2023-06-22T00:27:59;96509.09;;;20.78;86.35
71105;BME280;58760;48.716;8.962;2023-06-22T00:30:24;96508.19;;;20.72;86.58
71105;BME280;58760;48.716;8.962;2023-06-22T00:32:49;96516.63;;;20.64;84.83
71105;BME280;58760;48.716;8.962;2023-06-22T00:35:14;96516.63;;;20.64;86.06
71105;BME280;58760;48.716;8.962;2023-06-22T00:37:40;96518.25;;;20.65;86.27
71105;BME280;58760;48.716;8.962;2023-06-22T00:40:09;96524.13;;;20.62;84.77
71105;BME280;58760;48.716;8.962;2023-06-22T00:42:37;96537.03;;;20.60;84.64
71105;BME280;58760;48.716;8.962;2023-06-22T00:45:03;96513.34;;;20.62;85.82
71105;BME280;58760;48.716;8.962;2023-06-22T00:47:28;96504.91;;;20.59;86.27
71105;BME280;58760;48.716;8.962;2023-06-22T00:49:53;96531.19;;;20.63;84.83
71105;BME280;58760;48.716;8.962;2023-06-22T00:52:20;96573.03;;;20.77;84.38
71105;BME280;58760;48.716;8.962;2023-06-22T00:54:51;96569.03;;;20.68;84.75
71105;BME280;58760;48.716;8.962;2023-06-22T00:57:17;96556.75;;;20.61;84.61
71105;BME280;58760;48.716;8.962;2023-06-22T00:59:43;96571.38;;;20.53;85.18
71105;BME280;58760;48.716;8.962;2023-06-22T01:02:09;96585.69;;;20.54;84.70
71105;BME280;58760;48.716;8.962;2023-06-22T01:04:35;96581.09;;;20.31;85.48
71105;BME280;58760;48.716;8.962;2023-06-22T01:10:07;96551.41;;;20.19;87.07
71105;BME280;58760;48.716;8.962;2023-06-22T01:12:38;96565.81;;;20.13;86.53
71105;BME280;58760;48.716;8.962;2023-06-22T01:15:11;96551.16;;;20.09;87.26
71105;BME280;58760;48.716;8.962;2023-06-22T01:17:40;96546.47;;;20.05;87.38
71105;BME280;58760;48.716;8.962;2023-06-22T01:20:09;96539.78;;;20.07;87.32
71105;BME280;58760;48.716;8.962;2023-06-22T01:22:49;96528.91;;;20.02;87.30
71105;BME280;58760;48.716;8.962;2023-06-22T01:25:20;96521.03;;;20.01;88.38
71105;BME280;58760;48.716;8.962;2023-06-22T01:30:30;96526.16;;;19.91;89.41
71105;BME280;58760;48.716;8.962;2023-06-22T01:32:57;96519.94;;;19.90;90.39
71105;BME280;58760;48.716;8.962;2023-06-22T01:35:24;96527.56;;;19.93;90.51
71105;BME280;58760;48.716;8.962;2023-06-22T01:37:50;96521.03;;;20.01;89.18
71105;BME280;58760;48.716;8.962;2023-06-22T01:40:16;96521.38;;;20.04;90.84
71105;BME280;58760;48.716;8.962;2023-06-22T01:42:41;96519.38;;;20.00;89.90
71105;BME280;58760;48.716;8.962;2023-06-22T01:45:09;96525.75;;;20.05;89.40
71105;BME280;58760;48.716;8.962;2023-06-22T01:47:35;96519.38;;;20.00;88.50
71105;BME280;58760;48.716;8.962;2023-06-22T01:50:01;96523.25;;;19.92;88.93
71105;BME280;58760;48.716;8.962;2023-06-22T01:52:26;96528.50;;;19.87;88.73
71105;BME280;58760;48.716;8.962;2023-06-22T01:54:51;96533.78;;;19.82;89.62
71105;BME280;58760;48.716;8.962;2023-06-22T01:57:16;96530.94;;;19.77;89.33
71105;BME280;58760;48.716;8.962;2023-06-22T01:59:56;96535.53;;;19.76;90.09
71105;BME280;58760;48.716;8.962;2023-06-22T02:02:24;96544.63;;;19.75;89.50
71105;BME280;58760;48.716;8.962;2023-06-22T02:04:58;96546.16;;;19.71;89.79
71105;BME280;58760;48.716;8.962;2023-06-22T02:07:30;96548.47;;;19.68;90.37
71105;BME280;58760;48.716;8.962;2023-06-22T02:09:58;96542.72;;;19.64;90.24
71105;BME280;58760;48.716;8.962;2023-06-22T02:12:25;96551.03;;;19.63;89.66
71105;BME280;58760;48.716;8.962;2023-06-22T02:14:53;96556.66;;;19.61;89.62
71105;BME280;58760;48.716;8.962;2023-06-22T02:17:18;96545.28;;;19.59;90.89
71105;BME280;58760;48.716;8.962;2023-06-22T02:19:44;96541.56;;;19.60;90.86
71105;BME280;58760;48.716;8.962;2023-06-22T02:22:09;96538.25;;;19.58;91.40
71105;BME280;58760;48.716;8.962;2023-06-22T02:24:35;96525.03;;;19.57;91.16
71105;BME280;58760;48.716;8.962;2023-06-22T02:27:01;96513.44;;;19.56;91.00
71105;BME280;58760;48.716;8.962;2023-06-22T02:29:28;96509.09;;;19.55;91.96
71105;BME280;58760;48.716;8.962;2023-06-22T02:31:54;96521.16;;;19.53;91.47
71105;BME280;58760;48.716;8.962;2023-06-22T02:34:19;96513.63;;;19.43;92.06
71105;BME280;58760;48.716;8.962;2023-06-22T02:36:47;96512.81;;;19.43;92.66
71105;BME280;58760;48.716;8.962;2023-06-22T02:39:25;96520.66;;;19.44;92.69
71105;BME280;58760;48.716;8.962;2023-06-22T02:41:52;96517.44;;;19.54;92.43
71105;BME280;58760;48.716;8.962;2023-06-22T02:44:18;96507.22;;;19.56;91.94
71105;BME280;58760;48.716;8.962;2023-06-22T02:46:44;96510.59;;;19.51;91.12
71105;BME280;58760;48.716;8.962;2023-06-22T02:49:10;96503.91;;;19.42;91.96
71105;BME280;58760;48.716;8.962;2023-06-22T02:51:38;96504.88;;;19.29;91.94
71105;BME280;58760;48.716;8.962;2023-06-22T02:54:05;96501.97;;;19.31;93.10
71105;BME280;58760;48.716;8.962;2023-06-22T02:56:30;96500.00;;;19.38;92.84
71105;BME280;58760;48.716;8.962;2023-06-22T02:58:55;96501.22;;;19.42;93.07
71105;BME280;58760;48.716;8.962;2023-06-22T03:01:29;96504.16;;;19.41;92.47
71105;BME280;58760;48.716;8.962;2023-06-22T03:03:58;96504.56;;;19.38;92.46
71105;BME280;58760;48.716;8.962;2023-06-22T03:06:24;96504.22;;;19.34;92.34
71105;BME280;58760;48.716;8.962;2023-06-22T03:08:57;96505.84;;;19.35;93.00
71105;BME280;58760;48.716;8.962;2023-06-22T03:11:23;96504.22;;;19.34;93.24
71105;BME280;58760;48.716;8.962;2023-06-22T03:13:48;96504.66;;;19.31;93.13
71105;BME280;58760;48.716;8.962;2023-06-22T03:16:14;96505.47;;;19.31;93.77
71105;BME280;58760;48.716;8.962;2023-06-22T03:18:39;96503.03;;;19.30;94.13
71105;BME280;58760;48.716;8.962;2023-06-22T03:21:04;96503.47;;;19.27;93.79
71105;BME280;58760;48.716;8.962;2023-06-22T03:23:30;96495.63;;;19.25;93.57
71105;BME280;58760;48.716;8.962;2023-06-22T03:25:55;96489.41;;;19.25;93.42
71105;BME280;58760;48.716;8.962;2023-06-22T03:28:21;96490.69;;;19.22;93.79
71105;BME280;58760;48.716;8.962;2023-06-22T03:30:46;96488.47;;;19.19;93.31
71105;BME280;58760;48.716;8.962;2023-06-22T03:33:12;96487.06;;;19.17;93.85
71105;BME280;58760;48.716;8.962;2023-06-22T03:35:37;96489.75;;;19.17;94.59
71105;BME280;58760;48.716;8.962;2023-06-22T03:38:03;96479.19;;;19.15;94.20
71105;BME280;58760;48.716;8.962;2023-06-22T03:40:29;96482.72;;;19.16;94.14
71105;BME280;58760;48.716;8.962;2023-06-22T03:42:55;96488.09;;;19.16;94.73
71105;BME280;58760;48.716;8.962;2023-06-22T03:45:20;96483.78;;;19.15;94.29
71105;BME280;58760;48.716;8.962;2023-06-22T03:47:46;96478.41;;;19.15;94.73
71105;BME280;58760;48.716;8.962;2023-06-22T03:50:11;96472.88;;;19.10;95.23
71105;BME280;58760;48.716;8.962;2023-06-22T03:52:36;96474.44;;;19.17;94.90
71105;BME280;58760;48.716;8.962;2023-06-22T03:55:02;96476.41;;;19.22;94.70
71105;BME280;58760;48.716;8.962;2023-06-22T03:57:27;96480.28;;;19.26;94.18
71105;BME280;58760;48.716;8.962;2023-06-22T03:59:54;96486.97;;;19.23;93.80
71105;BME280;58760;48.716;8.962;2023-06-22T04:02:19;96482.25;;;19.19;93.71
71105;BME280;58760;48.716;8.962;2023-06-22T04:04:44;96479.09;;;19.22;93.55
71105;BME280;58760;48.716;8.962;2023-06-22T04:07:10;96469.13;;;19.11;94.70
71105;BME280;58760;48.716;8.962;2023-06-22T04:09:35;96462.84;;;19.17;95.28
71105;BME280;58760;48.716;8.962;2023-06-22T04:12:01;96471.66;;;19.24;94.79
71105;BME280;58760;48.716;8.962;2023-06-22T04:14:27;96469.69;;;19.31;94.41
71105;BME280;58760;48.716;8.962;2023-06-22T04:16:52;96472.38;;;19.31;93.60
71105;BME280;58760;48.716;8.962;2023-06-22T04:19:17;96475.06;;;19.31;93.53
71105;BME280;58760;48.716;8.962;2023-06-22T04:21:43;96466.75;;;19.32;94.53
71105;BME280;58760;48.716;8.962;2023-06-22T04:24:10;96461.00;;;19.29;94.20
71105;BME280;58760;48.716;8.962;2023-06-22T04:26:35;96463.13;;;19.39;94.26
71105;BME280;58760;48.716;8.962;2023-06-22T04:29:05;96463.06;;;19.45;94.12
71105;BME280;58760;48.716;8.962;2023-06-22T04:31:34;96462.59;;;19.48;92.91
71105;BME280;58760;48.716;8.962;2023-06-22T04:34:04;96453.84;;;19.53;92.52
71105;BME280;58760;48.716;8.962;2023-06-22T04:36:37;96453.19;;;19.57;92.19
71105;BME280;58760;48.716;8.962;2023-06-22T04:39:05;96457.03;;;19.61;92.05
71105;BME280;58760;48.716;8.962;2023-06-22T04:41:31;96448.47;;;19.64;91.79
71105;BME280;58760;48.716;8.962;2023-06-22T04:44:06;96446.75;;;19.81;92.63
71105;BME280;58760;48.716;8.962;2023-06-22T04:46:32;96451.31;;;19.81;91.43
71105;BME280;58760;48.716;8.962;2023-06-22T04:49:08;96441.84;;;19.78;90.98
71105;BME280;58760;48.716;8.962;2023-06-22T04:51:39;96440.91;;;19.84;91.10
71105;BME280;58760;48.716;8.962;2023-06-22T04:54:05;96439.97;;;19.91;91.31
71105;BME280;58760;48.716;8.962;2023-06-22T04:56:32;96438.25;;;19.96;90.22
71105;BME280;58760;48.716;8.962;2023-06-22T04:58:57;96438.69;;;20.05;90.14
71105;BME280;58760;48.716;8.962;2023-06-22T05:01:23;96440.69;;;20.09;89.65
71105;BME280;58760;48.716;8.962;2023-06-22T05:03:48;96440.69;;;20.21;91.16
71105;BME280;58760;48.716;8.962;2023-06-22T05:06:14;96445.59;;;20.24;88.45
71105;BME280;58760;48.716;8.962;2023-06-22T05:08:39;96436.03;;;20.28;89.97
71105;BME280;58760;48.716;8.962;2023-06-22T05:11:05;96433.44;;;20.33;88.26
71105;BME280;58760;48.716;8.962;2023-06-22T05:13:30;96427.69;;;20.41;87.99
71105;BME280;58760;48.716;8.962;2023-06-22T05:15:55;96422.41;;;20.46;87.34
71105;BME280;58760;48.716;8.962;2023-06-22T05:18:30;96411.25;;;20.54;87.59
71105;BME280;58760;48.716;8.962;2023-06-22T05:20:55;96417.91;;;20.63;85.52
71105;BME280;58760;48.716;8.962;2023-06-22T05:23:21;96424.00;;;20.70;85.28
71105;BME280;58760;48.716;8.962;2023-06-22T05:25:46;96417.63;;;20.76;84.25
71105;BME280;58760;48.716;8.962;2023-06-22T05:28:11;96413.97;;;20.82;84.00
71105;BME280;58760;48.716;8.962;2023-06-22T05:30:37;96410.81;;;20.85;83.28
71105;BME280;58760;48.716;8.962;2023-06-22T05:33:02;96405.25;;;20.92;82.74
71105;BME280;58760;48.716;8.962;2023-06-22T05:35:28;96405.13;;;20.99;82.35
71105;BME280;58760;48.716;8.962;2023-06-22T05:37:55;96408.63;;;20.99;82.85
71105;BME280;58760;48.716;8.962;2023-06-22T05:40:20;96409.22;;;21.01;82.61
71105;BME280;58760;48.716;8.962;2023-06-22T05:42:45;96419.28;;;21.06;82.32
71105;BME280;58760;48.716;8.962;2023-06-22T05:45:11;96412.38;;;21.10;82.62
71105;BME280;58760;48.716;8.962;2023-06-22T05:47:36;96412.84;;;21.07;82.61
71105;BME280;58760;48.716;8.962;2023-06-22T05:50:01;96419.84;;;21.08;82.86
71105;BME280;58760;48.716;8.962;2023-06-22T05:52:31;96420.94;;;21.07;82.18
71105;BME280;58760;48.716;8.962;2023-06-22T05:54:56;96414.69;;;21.18;81.78
71105;BME280;58760;48.716;8.962;2023-06-22T05:57:22;96416.81;;;21.16;82.41
71105;BME280;58760;48.716;8.962;2023-06-22T05:59:47;96416.56;;;21.17;80.47
71105;BME280;58760;48.716;8.962;2023-06-22T06:02:12;96421.25;;;21.22;81.35
71105;BME280;58760;48.716;8.962;2023-06-22T06:04:38;96419.78;;;21.31;80.16
71105;BME280;58760;48.716;8.962;2023-06-22T06:07:03;96410.16;;;21.35;80.48
71105;BME280;58760;48.716;8.962;2023-06-22T06:09:28;96412.69;;;21.42;80.00
71105;BME280;58760;48.716;8.962;2023-06-22T06:11:54;96409.25;;;21.46;79.81
71105;BME280;58760;48.716;8.962;2023-06-22T06:14:19;96402.13;;;21.57;79.00
71105;BME280;58760;48.716;8.962;2023-06-22T06:16:45;96407.38;;;21.63;78.33
71105;BME280;58760;48.716;8.962;2023-06-22T06:19:11;96407.06;;;21.76;77.30
71105;BME280;58760;48.716;8.962;2023-06-22T06:21:36;96404.03;;;21.89;76.56
71105;BME280;58760;48.716;8.962;2023-06-22T06:24:01;96403.22;;;22.06;75.32
71105;BME280;58760;48.716;8.962;2023-06-22T06:26:27;96399.44;;;22.07;76.20
71105;BME280;58760;48.716;8.962;2023-06-22T06:28:58;96412.13;;;22.06;76.22
71105;BME280;58760;48.716;8.962;2023-06-22T06:31:24;96405.06;;;22.22;73.84
71105;BME280;58760;48.716;8.962;2023-06-22T06:33:49;96413.00;;;22.28;73.28
71105;BME280;58760;48.716;8.962;2023-06-22T06:36:14;96412.25;;;22.33;73.17
71105;BME280;58760;48.716;8.962;2023-06-22T06:38:40;96416.41;;;22.40;73.68
71105;BME280;58760;48.716;8.962;2023-06-22T06:41:05;96414.03;;;22.44;73.40
71105;BME280;58760;48.716;8.962;2023-06-22T06:43:31;96416.22;;;22.47;73.35
71105;BME280;58760;48.716;8.962;2023-06-22T06:45:56;96416.31;;;22.52;73.92
71105;BME280;58760;48.716;8.962;2023-06-22T06:48:21;96410.38;;;22.55;72.16
71105;BME280;58760;48.716;8.962;2023-06-22T06:50:47;96409.53;;;22.71;71.52
71105;BME280;58760;48.716;8.962;2023-06-22T06:53:12;96414.44;;;22.74;70.19
71105;BME280;58760;48.716;8.962;2023-06-22T06:55:38;96406.31;;;22.74;71.19
71105;BME280;58760;48.716;8.962;2023-06-22T06:58:03;96409.53;;;22.71;71.20
71105;BME280;58760;48.716;8.962;2023-06-22T07:00:33;96401.16;;;22.73;71.13
71105;BME280;58760;48.716;8.962;2023-06-22T07:02:58;96394.38;;;22.92;70.97
71105;BME280;58760;48.716;8.962;2023-06-22T07:05:23;96385.78;;;23.00;70.50
71105;BME280;58760;48.716;8.962;2023-06-22T07:07:49;96379.63;;;23.05;70.18
71105;BME280;58760;48.716;8.962;2023-06-22T07:10:15;96386.13;;;23.09;70.00
71105;BME280;58760;48.716;8.962;2023-06-22T07:12:40;96388.41;;;23.17;69.63
71105;BME280;58760;48.716;8.962;2023-06-22T07:15:08;96379.47;;;23.16;70.11
71105;BME280;58760;48.716;8.962;2023-06-22T07:17:34;96379.53;;;23.21;69.90
71105;BME280;58760;48.716;8.962;2023-06-22T07:20:01;96374.25;;;23.36;69.03
71105;BME280;58760;48.716;8.962;2023-06-22T07:22:26;96375.69;;;23.44;68.75
71105;BME280;58760;48.716;8.962;2023-06-22T07:24:51;96361.66;;;23.52;68.05
71105;BME280;58760;48.716;8.962;2023-06-22T07:27:17;96363.69;;;23.67;66.99
71105;BME280;58760;48.716;8.962;2023-06-22T07:29:45;96354.75;;;23.66;67.50
71105;BME280;58760;48.716;8.962;2023-06-22T07:32:10;96359.16;;;23.77;66.49
71105;BME280;58760;48.716;8.962;2023-06-22T07:34:36;96352.66;;;23.78;66.19
71105;BME280;58760;48.716;8.962;2023-06-22T07:37:01;96341.31;;;23.81;65.88
71105;BME280;58760;48.716;8.962;2023-06-22T07:39:27;96337.75;;;23.81;66.46
71105;BME280;58760;48.716;8.962;2023-06-22T07:41:53;96334.72;;;24.09;66.98
71105;BME280;58760;48.716;8.962;2023-06-22T07:44:19;96326.81;;;24.08;66.04
71105;BME280;58760;48.716;8.962;2023-06-22T07:46:44;96334.50;;;24.16;65.28
71105;BME280;58760;48.716;8.962;2023-06-22T07:49:10;96331.78;;;24.16;65.53
71105;BME280;58760;48.716;8.962;2023-06-22T07:51:35;96338.34;;;24.25;64.40
71105;BME280;58760;48.716;8.962;2023-06-22T07:54:00;96345.38;;;24.21;63.97
71105;BME280;58760;48.716;8.962;2023-06-22T07:56:26;96359.00;;;24.36;64.47
71105;BME280;58760;48.716;8.962;2023-06-22T07:58:51;96371.47;;;24.32;65.69
71105;BME280;58760;48.716;8.962;2023-06-22T08:01:18;96370.94;;;24.35;65.72
71105;BME280;58760;48.716;8.962;2023-06-22T08:03:49;96374.50;;;24.40;65.24
71105;BME280;58760;48.716;8.962;2023-06-22T08:06:14;96377.50;;;24.44;64.81
71105;BME280;58760;48.716;8.962;2023-06-22T08:08:40;96389.03;;;24.76;64.80
71105;BME280;58760;48.716;8.962;2023-06-22T08:11:05;96378.31;;;25.07;63.91
71105;BME280;58760;48.716;8.962;2023-06-22T08:13:31;96389.75;;;25.19;63.94
71105;BME280;58760;48.716;8.962;2023-06-22T08:15:56;96395.22;;;25.29;63.46
71105;BME280;58760;48.716;8.962;2023-06-22T08:18:22;96401.47;;;25.34;64.07
71105;BME280;58760;48.716;8.962;2023-06-22T08:20:47;96412.59;;;25.38;62.90
71105;BME280;58760;48.716;8.962;2023-06-22T08:23:12;96408.56;;;25.45;63.05
71105;BME280;58760;48.716;8.962;2023-06-22T08:25:38;96414.25;;;25.49;64.88
71105;BME280;58760;48.716;8.962;2023-06-22T08:28:04;96408.81;;;25.49;65.58
71105;BME280;58760;48.716;8.962;2023-06-22T08:30:30;96407.19;;;25.48;63.03
71105;BME280;58760;48.716;8.962;2023-06-22T08:32:55;96401.47;;;25.34;63.33
71105;BME280;58760;48.716;8.962;2023-06-22T08:35:22;96395.47;;;25.27;63.72
71105;BME280;58760;48.716;8.962;2023-06-22T08:37:48;96393.03;;;25.41;62.67
71105;BME280;58760;48.716;8.962;2023-06-22T08:40:18;96382.22;;;25.66;61.17
71105;BME280;58760;48.716;8.962;2023-06-22T08:42:45;96389.50;;;25.40;61.46
71105;BME280;58760;48.716;8.962;2023-06-22T08:45:11;96383.03;;;25.57;62.04
71105;BME280;58760;48.716;8.962;2023-06-22T08:47:37;96380.00;;;25.48;61.73
71105;BME280;58760;48.716;8.962;2023-06-22T08:50:02;96377.06;;;25.55;63.11
71105;BME280;58760;48.716;8.962;2023-06-22T08:52:30;96379.22;;;25.53;61.82
71105;BME280;58760;48.716;8.962;2023-06-22T08:54:56;96384.41;;;25.74;63.12
71105;BME280;58760;48.716;8.962;2023-06-22T08:57:23;96377.59;;;25.87;61.98
71105;BME280;58760;48.716;8.962;2023-06-22T08:59:48;96382.19;;;26.07;60.62
71105;BME280;58760;48.716;8.962;2023-06-22T09:02:14;96393.09;;;26.07;61.45
71105;BME280;58760;48.716;8.962;2023-06-22T09:04:39;96396.59;;;26.12;61.91
71105;BME280;58760;48.716;8.962;2023-06-22T09:07:05;96388.19;;;26.14;61.67
71105;BME280;58760;48.716;8.962;2023-06-22T09:09:30;96393.09;;;26.22;61.25
71105;BME280;58760;48.716;8.962;2023-06-22T09:11:55;96382.44;;;26.35;60.98
71105;BME280;58760;48.716;8.962;2023-06-22T09:14:21;96381.03;;;26.48;60.58
71105;BME280;58760;48.716;8.962;2023-06-22T09:16:46;96367.44;;;26.48;59.20
71105;BME280;58760;48.716;8.962;2023-06-22T09:19:11;96356.84;;;26.41;60.25
71105;BME280;58760;48.716;8.962;2023-06-22T09:21:37;96356.84;;;26.41;60.25
71105;BME280;58760;48.716;8.962;2023-06-22T09:24:02;96359.78;;;26.55;60.33
71105;BME280;58760;48.716;8.962;2023-06-22T09:26:28;96357.03;;;26.60;60.64
71105;BME280;58760;48.716;8.962;2023-06-22T09:28:54;96355.41;;;26.64;59.50
71105;BME280;58760;48.716;8.962;2023-06-22T09:31:19;96354.81;;;26.82;59.75
71105;BME280;58760;48.716;8.962;2023-06-22T09:33:53;96338.97;;;26.89;60.25
71105;BME280;58760;48.716;8.962;2023-06-22T09:36:22;96336.72;;;27.01;60.69
71105;BME280;58760;48.716;8.962;2023-06-22T09:38:48;96327.44;;;27.08;60.49
71105;BME280;58760;48.716;8.962;2023-06-22T09:41:21;96318.06;;;27.19;58.42
71105;BME280;58760;48.716;8.962;2023-06-22T09:43:47;96313.69;;;27.23;59.35
71105;BME280;58760;48.716;8.962;2023-06-22T09:46:15;96310.38;;;27.31;58.74
71105;BME280;58760;48.716;8.962;2023-06-22T09:48:40;96305.84;;;27.55;58.00
71105;BME280;58760;48.716;8.962;2023-06-22T09:51:05;96307.06;;;27.73;57.40
71105;BME280;58760;48.716;8.962;2023-06-22T09:53:31;96303.34;;;27.87;56.66
71105;BME280;58760;48.716;8.962;2023-06-22T09:55:56;96296.06;;;28.12;57.08
71105;BME280;58760;48.716;8.962;2023-06-22T09:58:22;96291.06;;;28.19;55.61
71105;BME280;58760;48.716;8.962;2023-06-22T10:00:47;96290.41;;;28.27;55.29
71105;BME280;58760;48.716;8.962;2023-06-22T10:03:13;96287.06;;;28.35;55.06
71105;BME280;58760;48.716;8.962;2023-06-22T10:05:38;96274.84;;;28.51;55.41
71105;BME280;58760;48.716;8.962;2023-06-22T10:08:03;96279.47;;;28.74;54.87
71105;BME280;58760;48.716;8.962;2023-06-22T10:10:29;96289.38;;;28.89;55.52
71105;BME280;58760;48.716;8.962;2023-06-22T10:13:04;96276.44;;;28.94;54.26
71105;BME280;58760;48.716;8.962;2023-06-22T10:15:32;96277.31;;;29.08;54.27
71105;BME280;58760;48.716;8.962;2023-06-22T10:17:57;96271.88;;;29.27;52.14
71105;BME280;58760;48.716;8.962;2023-06-22T10:20:23;96272.00;;;29.36;52.80
71105;BME280;58760;48.716;8.962;2023-06-22T10:22:49;96271.16;;;29.54;52.44
71105;BME280;58760;48.716;8.962;2023-06-22T10:25:14;96271.69;;;29.37;50.12
71105;BME280;58760;48.716;8.962;2023-06-22T10:27:39;96266.06;;;29.47;48.62
71105;BME280;58760;48.716;8.962;2023-06-22T10:30:09;96263.66;;;29.59;49.33
71105;BME280;58760;48.716;8.962;2023-06-22T10:32:35;96266.13;;;29.61;50.17
71105;BME280;58760;48.716;8.962;2023-06-22T10:35:02;96271.31;;;29.76;50.27
71105;BME280;58760;48.716;8.962;2023-06-22T10:37:27;96270.09;;;29.82;49.43
71105;BME280;58760;48.716;8.962;2023-06-22T10:39:52;96264.13;;;29.80;48.92
71105;BME280;58760;48.716;8.962;2023-06-22T10:42:18;96255.47;;;30.05;48.24
71105;BME280;58760;48.716;8.962;2023-06-22T10:44:43;96253.75;;;30.09;48.87
71105;BME280;58760;48.716;8.962;2023-06-22T10:47:09;96242.88;;;30.04;46.92
71105;BME280;58760;48.716;8.962;2023-06-22T10:49:37;96260.06;;;30.24;47.56
71105;BME280;58760;48.716;8.962;2023-06-22T10:52:03;96255.16;;;30.34;48.47
71105;BME280;58760;48.716;8.962;2023-06-22T10:54:29;96251.22;;;30.40;49.39
71105;BME280;58760;48.716;8.962;2023-06-22T10:56:54;96249.00;;;30.56;49.16
71105;BME280;58760;48.716;8.962;2023-06-22T10:59:19;96263.78;;;30.82;49.96
71105;BME280;58760;48.716;8.962;2023-06-22T11:01:46;96259.06;;;30.83;46.55
71105;BME280;58760;48.716;8.962;2023-06-22T11:04:12;96259.84;;;30.61;48.02
71105;BME280;58760;48.716;8.962;2023-06-22T11:06:37;96261.34;;;30.67;47.81
71105;BME280;58760;48.716;8.962;2023-06-22T11:09:02;96256.38;;;30.69;46.34
71105;BME280;58760;48.716;8.962;2023-06-22T11:11:29;96255.25;;;30.70;45.42
71105;BME280;58760;48.716;8.962;2023-06-22T11:13:54;96244.31;;;30.56;47.70
71105;BME280;58760;48.716;8.962;2023-06-22T11:16:20;96254.06;;;30.49;47.98
71105;BME280;58760;48.716;8.962;2023-06-22T11:18:45;96261.28;;;30.45;48.91
71105;BME280;58760;48.716;8.962;2023-06-22T11:21:10;96253.75;;;30.37;50.02
71105;BME280;58760;48.716;8.962;2023-06-22T11:23:36;96254.66;;;30.32;50.72
71105;BME280;58760;48.716;8.962;2023-06-22T11:26:01;96240.38;;;30.49;46.63
71105;BME280;58760;48.716;8.962;2023-06-22T11:28:27;96234.09;;;30.48;46.85
71105;BME280;58760;48.716;8.962;2023-06-22T11:30:52;96228.66;;;30.71;45.07
71105;BME280;58760;48.716;8.962;2023-06-22T11:33:18;96230.13;;;30.54;45.83
71105;BME280;58760;48.716;8.962;2023-06-22T11:35:43;96233.63;;;30.82;46.60
71105;BME280;58760;48.716;8.962;2023-06-22T11:38:09;96233.94;;;30.67;48.34
71105;BME280;58760;48.716;8.962;2023-06-22T11:40:34;96236.19;;;30.65;48.19
71105;BME280;58760;48.716;8.962;2023-06-22T11:42:59;96228.47;;;30.67;48.40
71105;BME280;58760;48.716;8.962;2023-06-22T11:45:25;96228.59;;;30.48;48.84
71105;BME280;58760;48.716;8.962;2023-06-22T11:47:50;96229.94;;;30.24;49.47
71105;BME280;58760;48.716;8.962;2023-06-22T11:50:15;96243.91;;;30.08;49.81
71105;BME280;58760;48.716;8.962;2023-06-22T11:52:41;96251.81;;;30.10;51.92
71105;BME280;58760;48.716;8.962;2023-06-22T11:55:06;96267.13;;;29.97;54.03
71105;BME280;58760;48.716;8.962;2023-06-22T11:57:34;96273.50;;;29.93;54.85
71105;BME280;58760;48.716;8.962;2023-06-22T12:00:00;96270.47;;;29.94;52.68
71105;BME280;58760;48.716;8.962;2023-06-22T12:02:25;96271.56;;;29.93;53.05
71105;BME280;58760;48.716;8.962;2023-06-22T12:04:50;96274.81;;;29.95;52.78
71105;BME280;58760;48.716;8.962;2023-06-22T12:07:18;96269.75;;;30.02;54.23
71105;BME280;58760;48.716;8.962;2023-06-22T12:09:43;96257.59;;;30.08;53.71
71105;BME280;58760;48.716;8.962;2023-06-22T12:12:09;96253.56;;;30.33;51.89
71105;BME280;58760;48.716;8.962;2023-06-22T12:14:34;96249.47;;;30.31;51.66
71105;BME280;58760;48.716;8.962;2023-06-22T12:17:00;96248.06;;;30.20;51.94
71105;BME280;58760;48.716;8.962;2023-06-22T12:19:25;96257.50;;;30.14;52.63
71105;BME280;58760;48.716;8.962;2023-06-22T12:21:50;96261.47;;;30.07;53.05
71105;BME280;58760;48.716;8.962;2023-06-22T12:24:16;96273.00;;;30.04;51.94
71105;BME280;58760;48.716;8.962;2023-06-22T12:26:41;96289.03;;;29.79;50.90
71105;BME280;58760;48.716;8.962;2023-06-22T12:29:06;96263.56;;;29.83;51.45
71105;BME280;58760;48.716;8.962;2023-06-22T12:31:32;96274.31;;;29.93;52.38
71105;BME280;58760;48.716;8.962;2023-06-22T12:33:57;96273.81;;;30.05;52.92
71105;BME280;58760;48.716;8.962;2023-06-22T12:36:22;96269.44;;;30.18;52.07
71105;BME280;58760;48.716;8.962;2023-06-22T12:38:49;96269.88;;;30.38;53.44
71105;BME280;58760;48.716;8.962;2023-06-22T12:41:14;96264.91;;;30.40;54.28
71105;BME280;58760;48.716;8.962;2023-06-22T12:43:40;96264.41;;;30.38;54.13
71105;BME280;58760;48.716;8.962;2023-06-22T12:46:05;96268.97;;;30.16;56.01
71105;BME280;58760;48.716;8.962;2023-06-22T12:48:31;96270.25;;;30.04;54.47
71105;BME280;58760;48.716;8.962;2023-06-22T12:50:56;96274.66;;;29.73;58.10
71105;BME280;58760;48.716;8.962;2023-06-22T12:53:21;96286.97;;;29.57;57.06
71105;BME280;58760;48.716;8.962;2023-06-22T12:55:48;96300.75;;;29.52;56.71
71105;BME280;58760;48.716;8.962;2023-06-22T12:58:14;96305.50;;;29.28;56.99
71105;BME280;58760;48.716;8.962;2023-06-22T13:00:39;96301.06;;;29.13;57.74